createdAt,value
2023-03-06T00:00:54.256Z,-1.55
2023-03-06T00:03:24.012Z,-1.58
2023-03-06T00:05:55.662Z,-1.51
2023-03-06T00:08:25.169Z,-1.55
2023-03-06T00:10:54.633Z,-1.58
2023-03-06T00:13:30.174Z,-1.60
2023-03-06T00:16:01.639Z,-1.54
2023-03-06T00:18:30.806Z,-1.52
2023-03-06T00:21:00.476Z,-1.59
2023-03-06T00:23:29.653Z,-1.55
2023-03-06T00:25:59.063Z,-1.53
2023-03-06T00:28:31.025Z,-1.53
2023-03-06T00:31:00.595Z,-1.58
2023-03-06T00:33:30.920Z,-1.57
2023-03-06T00:36:00.379Z,-1.52
2023-03-06T00:38:33.543Z,-1.53
2023-03-06T00:41:10.969Z,-1.51
2023-03-06T00:43:41.484Z,-1.55
2023-03-06T00:46:11.036Z,-1.57
2023-03-06T00:48:41.659Z,-1.58
2023-03-06T00:51:13.850Z,-1.53
2023-03-06T00:53:43.185Z,-1.54
2023-03-06T00:56:12.553Z,-1.53
2023-03-06T00:58:43.227Z,-1.55
2023-03-06T01:01:12.774Z,-1.60
2023-03-06T01:03:41.835Z,-1.54
2023-03-06T01:06:11.420Z,-1.57
2023-03-06T01:08:40.484Z,-1.55
2023-03-06T01:11:09.838Z,-1.54
2023-03-06T01:13:39.319Z,-1.54
2023-03-06T01:16:13.550Z,-1.55
2023-03-06T01:18:43.309Z,-1.59
2023-03-06T01:21:13.350Z,-1.64
2023-03-06T01:23:42.897Z,-1.67
2023-03-06T01:26:12.722Z,-1.66
2023-03-06T01:28:41.855Z,-1.67
2023-03-06T01:31:12.982Z,-1.66
2023-03-06T01:33:42.354Z,-1.69
2023-03-06T01:36:14.104Z,-1.68
2023-03-06T01:38:43.396Z,-1.65
2023-03-06T01:41:15.821Z,-1.66
2023-03-06T01:43:47.289Z,-1.68
2023-03-06T01:46:27.279Z,-1.65
2023-03-06T01:48:59.009Z,-1.62
2023-03-06T01:51:34.409Z,-1.64
2023-03-06T01:54:09.985Z,-1.66
2023-03-06T01:56:41.932Z,-1.63
2023-03-06T01:59:12.028Z,-1.67
2023-03-06T02:01:44.974Z,-1.69
2023-03-06T02:04:14.892Z,-1.68
2023-03-06T02:06:46.296Z,-1.66
2023-03-06T02:09:15.513Z,-1.63
2023-03-06T02:11:46.405Z,-1.61
2023-03-06T02:14:18.379Z,-1.65
2023-03-06T02:16:50.726Z,-1.68
2023-03-06T02:19:33.704Z,-1.64
2023-03-06T02:22:03.767Z,-1.67
2023-03-06T02:24:41.885Z,-1.73
2023-03-06T02:27:15.068Z,-1.71
2023-03-06T02:29:45.706Z,-1.66
2023-03-06T02:32:15.165Z,-1.65
2023-03-06T02:34:53.068Z,-1.69
2023-03-06T02:37:23.209Z,-1.67
2023-03-06T02:39:58.833Z,-1.66
2023-03-06T02:42:30.665Z,-1.71
2023-03-06T02:45:04.350Z,-1.74
2023-03-06T02:47:34.044Z,-1.72
2023-03-06T02:50:03.227Z,-1.73
2023-03-06T02:52:32.601Z,-1.76
2023-03-06T02:55:01.787Z,-1.80
2023-03-06T02:57:32.690Z,-1.80
2023-03-06T03:00:02.208Z,-1.77
2023-03-06T03:02:32.469Z,-1.80
2023-03-06T03:05:01.748Z,-1.80
2023-03-06T03:07:32.160Z,-1.85
2023-03-06T03:10:01.370Z,-1.81
2023-03-06T03:12:33.175Z,-1.84
2023-03-06T03:15:02.386Z,-1.89
2023-03-06T03:17:31.749Z,-1.89
2023-03-06T03:20:01.038Z,-1.92
2023-03-06T03:22:32.369Z,-1.90
2023-03-06T03:25:01.597Z,-1.93
2023-03-06T03:27:32.476Z,-1.97
2023-03-06T03:33:35.299Z,-1.87
2023-03-06T03:36:07.237Z,-1.91
2023-03-06T03:38:39.690Z,-1.93
2023-03-06T03:41:09.438Z,-1.94
2023-03-06T03:43:40.300Z,-1.93
2023-03-06T03:46:09.918Z,-1.96
2023-03-06T03:48:39.416Z,-1.98
2023-03-06T03:51:10.437Z,-1.98
2023-03-06T03:53:43.520Z,-2.02
2023-03-06T03:56:15.767Z,-2.08
2023-03-06T03:58:55.385Z,-2.05
2023-03-06T04:01:26.393Z,-2.08
2023-03-06T04:03:56.506Z,-2.03
2023-03-06T04:06:25.995Z,-2.04
2023-03-06T04:08:55.401Z,-2.00
2023-03-06T04:11:26.063Z,-2.00
2023-03-06T04:13:57.281Z,-2.04
2023-03-06T04:16:27.291Z,-2.05
2023-03-06T04:18:57.686Z,-2.05
2023-03-06T04:21:27.214Z,-2.03
2023-03-06T04:23:56.753Z,-2.02
2023-03-06T04:26:26.188Z,-2.09
2023-03-06T04:28:55.694Z,-2.09
2023-03-06T04:31:26.770Z,-2.07
2023-03-06T04:33:56.065Z,-2.08
2023-03-06T04:36:29.782Z,-2.05
2023-03-06T04:39:03.622Z,-2.06
2023-03-06T04:41:34.960Z,-2.01
2023-03-06T04:44:04.895Z,-2.02
2023-03-06T04:46:36.289Z,-2.00
2023-03-06T04:49:05.564Z,-2.05
2023-03-06T04:51:36.821Z,-2.07
2023-03-06T04:54:06.581Z,-2.08
2023-03-06T04:56:35.964Z,-2.08
2023-03-06T04:59:05.434Z,-2.14
2023-03-06T05:01:36.167Z,-2.12
2023-03-06T05:04:05.587Z,-2.16
2023-03-06T05:06:35.070Z,-2.17
2023-03-06T05:09:04.309Z,-2.12
2023-03-06T05:11:33.706Z,-2.16
2023-03-06T05:14:02.916Z,-2.23
2023-03-06T05:16:32.413Z,-2.25
2023-03-06T05:19:03.002Z,-2.26
2023-03-06T05:21:32.502Z,-2.28
2023-03-06T05:24:01.742Z,-2.30
2023-03-06T05:26:31.334Z,-2.35
2023-03-06T05:29:00.389Z,-2.32
2023-03-06T05:31:29.868Z,-2.33
2023-03-06T05:33:59.574Z,-2.41
2023-03-06T05:36:30.385Z,-2.42
2023-03-06T05:38:59.705Z,-2.45
2023-03-06T05:41:29.119Z,-2.49
2023-03-06T05:43:58.894Z,-2.53
2023-03-06T05:46:28.345Z,-2.49
2023-03-06T05:48:58.556Z,-2.51
2023-03-06T05:51:29.470Z,-2.53
2023-03-06T05:53:58.683Z,-2.56
2023-03-06T05:56:28.390Z,-2.56
2023-03-06T05:58:57.670Z,-2.55
2023-03-06T06:01:28.766Z,-2.55
2023-03-06T06:03:57.979Z,-2.59
2023-03-06T06:06:27.328Z,-2.59
2023-03-06T06:08:57.901Z,-2.56
2023-03-06T06:11:27.441Z,-2.53
2023-03-06T06:13:56.620Z,-2.53
2023-03-06T06:16:26.122Z,-2.49
2023-03-06T06:18:55.177Z,-2.49
2023-03-06T06:21:24.654Z,-2.41
2023-03-06T06:23:53.682Z,-2.36
2023-03-06T06:26:24.824Z,-2.35
2023-03-06T06:28:54.018Z,-2.31
2023-03-06T06:31:23.987Z,-2.31
2023-03-06T06:33:53.295Z,-2.18
2023-03-06T06:36:23.089Z,-2.13
2023-03-06T06:38:52.629Z,-2.11
2023-03-06T06:44:16.249Z,-2.04
2023-03-06T06:49:36.085Z,-1.80
2023-03-06T06:52:06.111Z,-1.75
2023-03-06T06:54:35.504Z,-1.71
2023-03-06T06:57:06.412Z,-1.68
2023-03-06T06:59:35.864Z,-1.58
2023-03-06T07:02:05.920Z,-1.48
2023-03-06T07:04:35.617Z,-1.42
2023-03-06T07:07:04.974Z,-1.32
2023-03-06T07:09:34.478Z,-1.23
2023-03-06T07:12:05.448Z,-1.14
2023-03-06T07:14:34.686Z,-1.14
2023-03-06T07:17:04.039Z,-1.05
2023-03-06T07:19:33.694Z,-0.96
2023-03-06T07:22:04.211Z,-0.91
2023-03-06T07:24:33.341Z,-0.84
2023-03-06T07:27:03.007Z,-0.79
2023-03-06T07:29:34.612Z,-0.74
2023-03-06T07:32:04.248Z,-0.66
2023-03-06T07:34:33.510Z,-0.57
2023-03-06T07:37:03.187Z,-0.48
2023-03-06T07:39:32.377Z,-0.42
2023-03-06T07:42:01.706Z,-0.39
2023-03-06T07:44:32.830Z,-0.30
2023-03-06T07:47:02.968Z,-0.17
2023-03-06T07:49:32.204Z,-0.17
2023-03-06T07:52:03.614Z,-0.07
2023-03-06T07:54:32.831Z,0.05
2023-03-06T07:57:02.172Z,0.06
2023-03-06T07:59:33.164Z,0.18
2023-03-06T08:02:02.687Z,0.23
2023-03-06T08:04:31.770Z,0.33
2023-03-06T08:07:01.607Z,0.36
2023-03-06T08:09:30.903Z,0.43
2023-03-06T08:12:00.596Z,0.54
2023-03-06T08:14:30.099Z,0.64
2023-03-06T08:17:01.063Z,0.70
2023-03-06T08:19:30.281Z,0.84
2023-03-06T08:21:59.648Z,0.91
2023-03-06T08:24:28.832Z,0.96
2023-03-06T08:26:58.213Z,1.06
2023-03-06T08:29:27.776Z,1.13
2023-03-06T08:31:57.126Z,1.18
2023-03-06T08:34:28.203Z,1.25
2023-03-06T08:36:57.752Z,1.36
2023-03-06T08:39:26.801Z,1.42
2023-03-06T08:41:56.131Z,1.52
2023-03-06T08:44:25.191Z,1.59
2023-03-06T08:46:54.671Z,1.66
2023-03-06T08:49:24.322Z,1.76
2023-03-06T08:51:55.526Z,1.79
2023-03-06T08:54:24.679Z,1.86
2023-03-06T08:56:54.357Z,1.96
2023-03-06T08:59:24.737Z,2.05
2023-03-06T09:01:55.639Z,2.12
2023-03-06T09:04:24.968Z,2.24
2023-03-06T09:06:55.808Z,2.35
2023-03-06T09:09:25.006Z,2.45
2023-03-06T09:11:54.974Z,2.61
2023-03-06T09:14:24.202Z,2.67
2023-03-06T09:16:53.665Z,2.72
2023-03-06T09:19:22.865Z,2.82
2023-03-06T09:21:54.049Z,2.87
2023-03-06T09:24:24.747Z,2.89
2023-03-06T09:26:54.180Z,2.89
2023-03-06T09:29:23.276Z,2.87
2023-03-06T09:31:52.934Z,2.85
2023-03-06T09:34:22.751Z,2.84
2023-03-06T09:36:57.044Z,2.90
2023-03-06T09:39:28.643Z,2.90
2023-03-06T09:41:58.698Z,2.91
2023-03-06T09:44:29.425Z,3.00
2023-03-06T09:47:12.415Z,3.04
2023-03-06T09:49:54.093Z,3.03
2023-03-06T09:52:32.557Z,3.04
2023-03-06T09:55:11.927Z,3.10
2023-03-06T09:57:46.560Z,3.16
2023-03-06T10:00:20.821Z,3.15
2023-03-06T10:02:54.696Z,3.11
2023-03-06T10:05:34.288Z,3.10
2023-03-06T10:08:07.834Z,3.07
2023-03-06T10:10:45.899Z,3.05
2023-03-06T10:13:20.888Z,3.08
2023-03-06T10:15:51.273Z,3.11
2023-03-06T10:18:20.731Z,3.20
2023-03-06T10:20:56.112Z,3.30
2023-03-06T10:23:43.200Z,3.37
2023-03-06T10:26:18.068Z,3.41
2023-03-06T10:28:53.927Z,3.45
2023-03-06T10:31:25.875Z,3.45
2023-03-06T10:33:59.100Z,3.47
2023-03-06T10:36:31.146Z,3.47
2023-03-06T10:39:01.031Z,3.45
2023-03-06T10:41:32.909Z,3.48
2023-03-06T10:44:26.478Z,3.47
2023-03-06T10:46:56.425Z,3.52
2023-03-06T10:49:30.166Z,3.48
2023-03-06T10:52:02.951Z,3.53
2023-03-06T10:54:34.556Z,3.55
2023-03-06T10:57:25.948Z,3.65
2023-03-06T10:59:57.300Z,3.62
2023-03-06T11:02:30.013Z,3.69
2023-03-06T11:05:01.138Z,3.70
2023-03-06T11:07:31.933Z,3.75
2023-03-06T11:10:08.826Z,3.76
2023-03-06T11:12:42.679Z,3.77
2023-03-06T11:15:22.380Z,3.78
2023-03-06T11:17:58.964Z,3.78
2023-03-06T11:20:48.513Z,3.83
2023-03-06T11:23:23.088Z,3.91
2023-03-06T11:25:57.357Z,4.02
2023-03-06T11:28:33.999Z,4.10
2023-03-06T11:31:09.781Z,4.21
2023-03-06T11:33:46.475Z,4.29
2023-03-06T11:36:24.066Z,4.35
2023-03-06T11:38:54.848Z,4.38
2023-03-06T11:41:34.076Z,4.42
2023-03-06T11:44:13.965Z,4.39
2023-03-06T11:46:49.445Z,4.45
2023-03-06T11:49:25.579Z,4.42
2023-03-06T11:51:58.783Z,4.46
2023-03-06T11:54:28.309Z,4.48
2023-03-06T11:57:02.878Z,4.46
2023-03-06T12:00:02.187Z,4.46
2023-03-06T12:02:50.891Z,4.45
2023-03-06T12:05:35.585Z,4.44
2023-03-06T12:08:34.554Z,4.39
2023-03-06T12:11:12.505Z,4.45
2023-03-06T12:14:03.999Z,4.40
2023-03-06T12:16:59.539Z,4.38
2023-03-06T12:19:52.239Z,4.37
2023-03-06T12:22:40.304Z,4.39
2023-03-06T12:25:29.361Z,4.38
2023-03-06T12:28:13.659Z,4.38
2023-03-06T12:31:02.379Z,4.43
2023-03-06T12:33:42.293Z,4.48
2023-03-06T12:36:25.838Z,4.39
2023-03-06T12:39:04.763Z,4.40
2023-03-06T12:41:44.813Z,4.41
2023-03-06T12:44:39.414Z,4.39
2023-03-06T12:47:13.876Z,4.40
2023-03-06T12:49:49.809Z,4.39
2023-03-06T12:52:30.341Z,4.41
2023-03-06T12:55:06.946Z,4.38
2023-03-06T12:57:38.523Z,4.43
2023-03-06T13:00:11.374Z,4.51
2023-03-06T13:03:07.891Z,4.49
2023-03-06T13:05:58.908Z,4.49
2023-03-06T13:09:00.229Z,4.49
2023-03-06T13:11:48.067Z,4.58
2023-03-06T13:14:26.251Z,4.61
2023-03-06T13:16:55.718Z,4.61
2023-03-06T13:19:27.020Z,4.67
2023-03-06T13:22:14.659Z,4.70
2023-03-06T13:24:45.555Z,4.74
2023-03-06T13:28:00.389Z,4.75
2023-03-06T13:30:46.491Z,4.79
2023-03-06T13:33:54.870Z,4.82
2023-03-06T13:36:32.017Z,4.72
2023-03-06T13:39:19.599Z,4.68
2023-03-06T13:42:01.302Z,4.61
2023-03-06T13:44:51.850Z,4.57
2023-03-06T13:48:02.817Z,4.59
2023-03-06T13:50:38.330Z,4.56
2023-03-06T13:53:41.284Z,4.53
2023-03-06T13:56:42.710Z,4.41
2023-03-06T13:59:40.133Z,4.43
2023-03-06T14:02:36.349Z,4.40
2023-03-06T14:05:13.418Z,4.39
2023-03-06T14:07:45.973Z,4.34
2023-03-06T14:10:24.848Z,4.29
2023-03-06T14:13:04.513Z,4.34
2023-03-06T14:15:43.151Z,4.32
2023-03-06T14:18:20.825Z,4.36
2023-03-06T14:20:55.735Z,4.28
2023-03-06T14:23:29.621Z,4.24
2023-03-06T14:26:06.398Z,4.21
2023-03-06T14:28:37.164Z,4.21
2023-03-06T14:31:07.620Z,4.20
2023-03-06T14:33:44.678Z,4.19
2023-03-06T14:36:17.607Z,4.18
2023-03-06T14:38:51.543Z,4.18
2023-03-06T14:41:26.928Z,4.19
2023-03-06T14:44:19.459Z,4.13
2023-03-06T14:46:50.786Z,4.14
2023-03-06T14:49:23.671Z,4.08
2023-03-06T14:51:55.450Z,4.05
2023-03-06T14:54:29.731Z,4.03
2023-03-06T14:57:03.849Z,3.99
2023-03-06T14:59:44.612Z,3.98
2023-03-06T15:02:21.536Z,3.95
2023-03-06T15:04:55.702Z,3.93
2023-03-06T15:07:29.212Z,3.91
2023-03-06T15:10:00.733Z,3.89
2023-03-06T15:12:39.499Z,3.88
2023-03-06T15:15:41.443Z,3.87
2023-03-06T15:18:33.854Z,3.87
2023-03-06T15:21:18.215Z,3.87
2023-03-06T15:23:49.159Z,3.78
2023-03-06T15:26:29.379Z,3.72
2023-03-06T15:29:09.082Z,3.69
2023-03-06T15:31:39.289Z,3.65
2023-03-06T15:34:32.437Z,3.62
2023-03-06T15:37:19.956Z,3.55
2023-03-06T15:40:06.778Z,3.43
2023-03-06T15:42:40.908Z,3.50
2023-03-06T15:45:15.919Z,3.52
2023-03-06T15:47:48.405Z,3.48
2023-03-06T15:50:22.068Z,3.40
2023-03-06T15:52:54.306Z,3.40
2023-03-06T15:55:26.027Z,3.36
2023-03-06T15:58:00.799Z,3.40
2023-03-06T16:00:34.179Z,3.39
2023-03-06T16:03:05.934Z,3.38
2023-03-06T16:05:35.937Z,3.36
2023-03-06T16:08:11.178Z,3.32
2023-03-06T16:10:43.965Z,3.27
2023-03-06T16:13:17.223Z,3.24
2023-03-06T16:15:49.752Z,3.17
2023-03-06T16:18:53.067Z,3.11
2023-03-06T16:21:24.084Z,3.07
2023-03-06T16:23:54.987Z,2.99
2023-03-06T16:26:30.715Z,2.94
2023-03-06T16:29:00.495Z,2.90
2023-03-06T16:31:30.003Z,2.82
2023-03-06T16:33:59.039Z,2.78
2023-03-06T16:36:30.204Z,2.74
2023-03-06T16:39:00.846Z,2.70
2023-03-06T16:41:33.117Z,2.68
2023-03-06T16:44:02.464Z,2.62
2023-03-06T16:46:33.104Z,2.59
2023-03-06T16:49:06.126Z,2.54
2023-03-06T16:51:39.153Z,2.49
2023-03-06T16:54:09.694Z,2.47
2023-03-06T16:56:39.698Z,2.44
2023-03-06T16:59:09.216Z,2.34
2023-03-06T17:01:39.212Z,2.18
2023-03-06T17:04:08.419Z,2.15
2023-03-06T17:06:38.506Z,2.06
2023-03-06T17:09:10.980Z,2.02
2023-03-06T17:11:43.076Z,2.07
2023-03-06T17:14:12.669Z,2.04
2023-03-06T17:16:42.588Z,2.01
2023-03-06T17:19:15.549Z,1.96
2023-03-06T17:21:45.477Z,1.94
2023-03-06T17:24:16.354Z,1.92
2023-03-06T17:26:47.001Z,1.89
2023-03-06T17:29:16.423Z,1.91
2023-03-06T17:31:47.271Z,1.92
2023-03-06T17:34:16.606Z,1.90
2023-03-06T17:36:45.914Z,1.89
2023-03-06T17:39:16.399Z,1.88
2023-03-06T17:41:46.558Z,1.88
2023-03-06T17:44:16.542Z,1.86
2023-03-06T17:46:46.840Z,1.84
2023-03-06T17:49:16.451Z,1.80
2023-03-06T17:51:46.193Z,1.77
2023-03-06T17:54:17.012Z,1.72
2023-03-06T17:56:46.699Z,1.68
2023-03-06T17:59:16.009Z,1.58
2023-03-06T18:01:46.188Z,1.55
2023-03-06T18:04:15.178Z,1.52
2023-03-06T18:06:44.785Z,1.48
2023-03-06T18:09:15.226Z,1.41
2023-03-06T18:11:44.890Z,1.35
2023-03-06T18:14:14.165Z,1.29
2023-03-06T18:16:43.959Z,1.24
2023-03-06T18:19:14.409Z,1.19
2023-03-06T18:21:44.407Z,1.15
2023-03-06T18:24:15.019Z,1.10
2023-03-06T18:26:44.533Z,1.04
2023-03-06T18:29:13.638Z,0.98
2023-03-06T18:31:44.867Z,0.94
2023-03-06T18:34:17.539Z,0.88
2023-03-06T18:36:50.777Z,0.82
2023-03-06T18:39:22.448Z,0.75
2023-03-06T18:41:52.259Z,0.70
2023-03-06T18:44:24.022Z,0.65
2023-03-06T18:46:53.587Z,0.59
2023-03-06T18:49:22.766Z,0.53
2023-03-06T18:51:53.131Z,0.48
2023-03-06T18:54:24.574Z,0.41
2023-03-06T18:56:54.178Z,0.34
2023-03-06T18:59:23.625Z,0.30
2023-03-06T19:01:57.517Z,0.26
2023-03-06T19:04:27.466Z,0.22
2023-03-06T19:06:57.663Z,0.17
2023-03-06T19:09:30.397Z,0.14
2023-03-06T19:12:00.355Z,0.10
2023-03-06T19:14:29.944Z,0.07
2023-03-06T19:16:59.336Z,0.04
2023-03-06T19:19:29.922Z,0.02
2023-03-06T19:22:00.231Z,-0.02
2023-03-06T19:24:31.254Z,-0.03
2023-03-06T19:27:00.797Z,-0.08
2023-03-06T19:29:29.898Z,-0.12
2023-03-06T19:31:59.734Z,-0.16
2023-03-06T19:34:28.973Z,-0.20
2023-03-06T19:36:58.667Z,-0.22
2023-03-06T19:39:27.791Z,-0.28
2023-03-06T19:42:00.783Z,-0.31
2023-03-06T19:44:34.052Z,-0.33
2023-03-06T19:47:06.843Z,-0.36
2023-03-06T19:49:38.136Z,-0.42
2023-03-06T19:52:08.269Z,-0.46
2023-03-06T19:54:37.855Z,-0.49
2023-03-06T19:57:08.935Z,-0.54
2023-03-06T19:59:38.225Z,-0.60
2023-03-06T20:02:08.038Z,-0.64
2023-03-06T20:04:39.442Z,-0.69
2023-03-06T20:07:08.954Z,-0.76
2023-03-06T20:09:38.412Z,-0.80
2023-03-06T20:12:09.364Z,-0.88
2023-03-06T20:14:39.814Z,-0.91
2023-03-06T20:17:09.798Z,-0.98
2023-03-06T20:19:40.580Z,-1.03
2023-03-06T20:22:10.588Z,-1.06
2023-03-06T20:24:40.362Z,-1.11
2023-03-06T20:27:12.303Z,-1.16
2023-03-06T20:29:44.978Z,-1.20
2023-03-06T20:32:15.403Z,-1.24
2023-03-06T20:34:46.633Z,-1.29
2023-03-06T20:37:16.094Z,-1.34
2023-03-06T20:39:48.345Z,-1.39
2023-03-06T20:42:19.227Z,-1.44
2023-03-06T20:44:49.110Z,-1.48
2023-03-06T20:47:18.598Z,-1.53
2023-03-06T20:49:47.685Z,-1.59
2023-03-06T20:52:18.919Z,-1.64
2023-03-06T20:54:48.127Z,-1.68
2023-03-06T20:57:19.097Z,-1.71
2023-03-06T20:59:48.305Z,-1.76
2023-03-06T21:02:17.995Z,-1.80
2023-03-06T21:04:47.290Z,-1.85
2023-03-06T21:07:17.051Z,-1.92
2023-03-06T21:09:47.988Z,-1.97
2023-03-06T21:12:19.005Z,-2.00
2023-03-06T21:14:48.418Z,-2.04
2023-03-06T21:17:18.873Z,-2.08
2023-03-06T21:19:48.040Z,-2.14
2023-03-06T21:22:17.403Z,-2.16
2023-03-06T21:24:46.680Z,-2.21
2023-03-06T21:27:16.115Z,-2.25
2023-03-06T21:29:48.030Z,-2.29
2023-03-06T21:32:17.977Z,-2.33
2023-03-06T21:34:47.042Z,-2.37
2023-03-06T21:37:16.560Z,-2.40
2023-03-06T21:39:45.620Z,-2.42
2023-03-06T21:42:15.215Z,-2.46
2023-03-06T21:44:44.513Z,-2.50
2023-03-06T21:47:15.410Z,-2.53
2023-03-06T21:49:44.955Z,-2.58
2023-03-06T21:52:14.335Z,-2.61
2023-03-06T21:54:43.530Z,-2.63
2023-03-06T21:57:13.247Z,-2.66
2023-03-06T21:59:42.504Z,-2.69
2023-03-06T22:02:12.584Z,-2.72
2023-03-06T22:04:44.277Z,-2.79
2023-03-06T22:07:13.701Z,-2.84
2023-03-06T22:09:42.779Z,-2.89
2023-03-06T22:12:12.571Z,-2.90
2023-03-06T22:14:44.115Z,-2.94
2023-03-06T22:17:13.714Z,-2.97
2023-03-06T22:19:44.174Z,-3.01
2023-03-06T22:22:13.580Z,-3.04
2023-03-06T22:24:42.719Z,-3.09
2023-03-06T22:27:12.259Z,-3.10
2023-03-06T22:29:41.477Z,-3.15
2023-03-06T22:32:10.945Z,-3.21
2023-03-06T22:34:40.439Z,-3.22
2023-03-06T22:37:11.306Z,-3.26
2023-03-06T22:39:40.598Z,-3.30
2023-03-06T22:42:09.986Z,-3.33
2023-03-06T22:44:39.646Z,-3.37
2023-03-06T22:47:09.012Z,-3.39
2023-03-06T22:49:39.544Z,-3.42
2023-03-06T22:52:10.631Z,-3.46
2023-03-06T22:54:40.220Z,-3.50
2023-03-06T22:57:09.794Z,-3.54
2023-03-06T22:59:38.901Z,-3.57
2023-03-06T23:02:08.394Z,-3.61
2023-03-06T23:04:37.512Z,-3.67
2023-03-06T23:07:07.095Z,-3.68
2023-03-06T23:09:37.727Z,-3.72
2023-03-06T23:12:25.733Z,-3.74
2023-03-06T23:15:13.814Z,-3.82
2023-03-06T23:18:02.276Z,-3.86
2023-03-06T23:20:50.170Z,-3.91
2023-03-06T23:23:39.075Z,-3.95
2023-03-06T23:26:11.308Z,-3.98
2023-03-06T23:28:41.638Z,-4.02
2023-03-06T23:31:12.202Z,-4.05
2023-03-06T23:33:42.725Z,-4.08
2023-03-06T23:36:13.451Z,-4.11
2023-03-06T23:38:43.309Z,-4.12
2023-03-06T23:41:16.651Z,-4.16
2023-03-06T23:43:46.548Z,-4.18
2023-03-06T23:46:16.163Z,-4.21
2023-03-06T23:48:46.765Z,-4.24
2023-03-06T23:51:18.424Z,-4.27
2023-03-06T23:53:49.550Z,-4.28
2023-03-06T23:56:20.380Z,-4.30
2023-03-06T23:58:49.937Z,-4.31
